Time;durP1;ratioP1;P1;durP2;ratioP2;P2;SDS_P1;SDS_P2;PMS_P1;PMS_P2;Temp;Humidity;BMP_temperature;BMP_pressure;BME280_temperature;BME280_humidity;BME280_pressure;Samples;Min_cycle;Max_cycle;Signal;HPM_P1;HPM_P2
2023/09/12 00:01:05;;;;;;;14.50;6.82;;;20.50;99.20;;;;;;4933365;29;20459;-76
2023/09/12 00:03:31;;;;;;;12.25;6.47;;;20.50;99.20;;;;;;4948847;28;20059;-76
2023/09/12 00:06:01;;;;;;;16.85;6.80;;;20.50;99.20;;;;;;4937395;29;20074;-77
2023/09/12 00:08:30;;;;;;;15.90;6.90;;;20.40;99.30;;;;;;4937590;29;20122;-78
2023/09/12 00:11:25;;;;;;;14.48;6.60;;;20.40;99.30;;;;;;4949709;28;20088;-75
2023/09/12 00:13:51;;;;;;;14.77;6.18;;;20.40;99.30;;;;;;4948444;28;20477;-75
2023/09/12 00:16:17;;;;;;;12.82;6.43;;;20.40;99.40;;;;;;4951140;28;20038;-76
2023/09/12 00:18:46;;;;;;;12.77;6.03;;;20.40;99.50;;;;;;4949220;28;20138;-78
2023/09/12 00:21:14;;;;;;;12.38;6.95;;;20.30;99.60;;;;;;4951508;28;20040;-75
2023/09/12 00:23:40;;;;;;;15.55;7.18;;;20.30;99.60;;;;;;4944156;28;20036;-77
2023/09/12 00:26:06;;;;;;;11.68;6.18;;;20.30;99.80;;;;;;4945198;28;20036;-75
2023/09/12 00:28:33;;;;;;;12.27;6.63;;;20.30;99.80;;;;;;4938974;29;20019;-77
2023/09/12 00:31:02;;;;;;;10.93;5.95;;;20.30;99.90;;;;;;4952841;28;20122;-78
2023/09/12 00:33:39;;;;;;;10.85;6.95;;;20.20;99.90;;;;;;4948815;28;20445;-77
2023/09/12 00:36:05;;;;;;;14.80;6.18;;;20.20;99.90;;;;;;4942357;29;20466;-78
2023/09/12 00:38:31;;;;;;;19.17;6.60;;;20.20;99.90;;;;;;4938314;29;20070;-75
2023/09/12 00:41:10;;;;;;;13.55;6.85;;;20.20;99.90;;;;;;4934928;29;20035;-78
2023/09/12 00:43:36;;;;;;;13.43;7.53;;;20.20;99.90;;;;;;4939366;29;20052;-77
2023/09/12 00:46:27;;;;;;;12.82;7.65;;;20.10;99.90;;;;;;4950900;28;20050;-79
2023/09/12 00:48:55;;;;;;;12.07;7.07;;;20.00;99.90;;;;;;4943139;29;20027;-77
2023/09/12 00:51:34;;;;;;;9.98;6.82;;;20.00;99.90;;;;;;4935283;29;20126;-75
2023/09/12 00:54:06;;;;;;;13.52;7.00;;;20.00;99.90;;;;;;4932320;29;20030;-77
2023/09/12 00:56:32;;;;;;;12.68;7.00;;;19.90;99.90;;;;;;4932459;29;20040;-77
2023/09/12 00:58:58;;;;;;;15.35;6.82;;;19.90;99.90;;;;;;4932597;29;20090;-75
2023/09/12 01:01:24;;;;;;;23.42;7.07;;;19.90;99.90;;;;;;4936051;29;20032;-77
2023/09/12 01:03:55;;;;;;;13.23;7.15;;;19.80;99.90;;;;;;4935910;28;20376;-77
2023/09/12 01:06:34;;;;;;;13.15;6.53;;;19.80;99.90;;;;;;4934763;29;20027;-77
2023/09/12 01:09:00;;;;;;;14.93;6.13;;;19.70;99.90;;;;;;4945592;28;20030;-74
2023/09/12 01:11:27;;;;;;;11.45;6.95;;;19.70;99.90;;;;;;4932671;29;20098;-77
2023/09/12 01:13:55;;;;;;;13.23;6.72;;;19.70;99.90;;;;;;4934651;29;20040;-77
2023/09/12 01:16:26;;;;;;;9.43;6.03;;;19.60;99.90;;;;;;4935239;29;20514;-76
2023/09/12 01:18:56;;;;;;;11.32;6.82;;;19.60;99.90;;;;;;4939266;29;20091;-78
2023/09/12 01:22:17;;;;;;;16.58;6.82;;;19.50;99.90;;;;;;4948619;28;20091;-75
2023/09/12 01:25:11;;;;;;;12.82;6.60;;;19.50;99.90;;;;;;4917566;29;20047;-76
2023/09/12 01:28:03;;;;;;;10.77;6.55;;;19.50;99.90;;;;;;4933008;29;20035;-73
2023/09/12 01:30:34;;;;;;;14.57;6.88;;;19.50;99.90;;;;;;4946490;28;20032;-76
2023/09/12 01:33:00;;;;;;;16.95;7.38;;;19.50;99.90;;;;;;4951469;23;20054;-72
2023/09/12 01:35:28;;;;;;;12.55;7.45;;;19.50;99.90;;;;;;4956624;28;20046;-71
2023/09/12 01:38:03;;;;;;;13.93;6.45;;;19.50;99.90;;;;;;4956418;29;20101;-73
2023/09/12 01:40:50;;;;;;;13.05;6.63;;;19.50;99.90;;;;;;4956301;28;20050;-74
2023/09/12 01:43:32;;;;;;;16.42;7.28;;;19.50;99.90;;;;;;4955015;28;20454;-73
2023/09/12 01:46:04;;;;;;;12.07;6.25;;;19.50;99.90;;;;;;4954774;29;20075;-74
2023/09/12 01:48:37;;;;;;;11.07;6.95;;;19.50;99.90;;;;;;4956276;28;20031;-74
2023/09/12 01:51:04;;;;;;;12.63;6.88;;;19.50;99.90;;;;;;4956304;28;20493;-73
2023/09/12 01:53:34;;;;;;;11.80;6.03;;;19.50;99.90;;;;;;4955990;28;20031;-73
2023/09/12 01:56:00;;;;;;;16.50;7.10;;;19.50;99.90;;;;;;4962239;28;20117;-73
2023/09/12 01:58:30;;;;;;;13.30;6.38;;;19.40;99.90;;;;;;4955058;28;20122;-73
2023/09/12 02:01:01;;;;;;;16.42;6.40;;;19.50;99.90;;;;;;4955851;28;20118;-73
2023/09/12 02:03:30;;;;;;;12.23;6.53;;;19.40;99.90;;;;;;4955697;28;20145;-74
2023/09/12 02:05:58;;;;;;;9.70;6.18;;;19.40;99.90;;;;;;4955787;28;20030;-73
2023/09/12 02:08:27;;;;;;;11.48;6.30;;;19.40;99.90;;;;;;4954497;29;20535;-73
2023/09/12 02:10:52;;;;;;;12.82;6.65;;;19.40;99.90;;;;;;4970581;28;20082;-74
2023/09/12 02:13:21;;;;;;;15.43;6.00;;;19.40;99.90;;;;;;4955608;28;20019;-73
2023/09/12 02:15:50;;;;;;;10.55;6.30;;;19.40;99.90;;;;;;4955723;28;20038;-73
2023/09/12 02:18:18;;;;;;;10.90;6.55;;;19.40;99.90;;;;;;4955620;28;20422;-74
2023/09/12 02:20:58;;;;;;;17.42;6.70;;;19.40;99.90;;;;;;4956101;28;20572;-75
2023/09/12 02:23:24;;;;;;;14.32;6.38;;;19.40;99.90;;;;;;4956031;28;20046;-74
2023/09/12 02:25:53;;;;;;;14.82;6.43;;;19.40;99.90;;;;;;4955545;28;20027;-74
2023/09/12 02:28:18;;;;;;;7.55;5.90;;;19.40;99.90;;;;;;4955648;28;20024;-73
2023/09/12 02:30:47;;;;;;;13.18;6.38;;;19.30;99.90;;;;;;4955425;28;20082;-74
2023/09/12 02:33:12;;;;;;;15.25;7.45;;;19.30;99.90;;;;;;4955174;28;20031;-73
2023/09/12 02:35:38;;;;;;;14.18;7.00;;;19.30;99.90;;;;;;4955403;28;20501;-75
2023/09/12 02:38:10;;;;;;;11.60;6.95;;;19.30;99.90;;;;;;4955146;28;20039;-74
2023/09/12 02:40:35;;;;;;;14.05;7.57;;;19.30;99.90;;;;;;4955221;28;20031;-73
2023/09/12 02:43:01;;;;;;;13.68;6.18;;;19.30;99.90;;;;;;4955255;28;20375;-74
2023/09/12 02:45:27;;;;;;;12.40;6.82;;;19.20;99.90;;;;;;4954901;28;20035;-72
2023/09/12 02:47:58;;;;;;;10.68;5.88;;;19.20;99.90;;;;;;4955195;28;20169;-73
2023/09/12 02:50:27;;;;;;;12.65;5.97;;;19.20;99.90;;;;;;4955106;28;20022;-73
2023/09/12 02:52:52;;;;;;;10.75;6.40;;;19.20;99.90;;;;;;4954906;28;20031;-73
2023/09/12 02:55:21;;;;;;;14.88;6.53;;;19.20;99.90;;;;;;4954545;28;20034;-74
2023/09/12 02:57:46;;;;;;;11.98;7.05;;;19.10;99.90;;;;;;4954924;28;20027;-74
2023/09/12 03:00:13;;;;;;;19.35;7.55;;;19.10;99.90;;;;;;4955305;28;20091;-74
2023/09/12 03:02:39;;;;;;;12.07;7.70;;;19.00;99.90;;;;;;4954842;28;20025;-75
2023/09/12 03:05:08;;;;;;;11.85;7.80;;;19.00;99.90;;;;;;4955576;28;20110;-75
2023/09/12 03:07:33;;;;;;;15.48;7.80;;;19.00;99.90;;;;;;4954889;28;20386;-76
2023/09/12 03:09:59;;;;;;;13.68;8.00;;;18.90;99.90;;;;;;4954656;28;20028;-75
2023/09/12 03:12:24;;;;;;;16.55;8.10;;;19.00;99.90;;;;;;4954623;28;20062;-75
2023/09/12 03:14:53;;;;;;;20.58;8.98;;;18.90;99.90;;;;;;4953294;28;20034;-74
2023/09/12 03:17:19;;;;;;;13.38;8.48;;;18.90;99.90;;;;;;4954625;28;20031;-74
2023/09/12 03:19:44;;;;;;;14.35;8.15;;;18.80;99.90;;;;;;4954320;28;20093;-74
2023/09/12 03:22:13;;;;;;;16.23;8.70;;;18.80;99.90;;;;;;4954549;28;20031;-73
2023/09/12 03:24:45;;;;;;;14.70;8.65;;;18.80;99.90;;;;;;4954954;28;20048;-73
2023/09/12 03:27:10;;;;;;;15.77;7.68;;;18.70;99.90;;;;;;4953228;28;20106;-72
2023/09/12 03:29:46;;;;;;;16.20;7.93;;;18.70;99.90;;;;;;4954327;28;20087;-73
2023/09/12 03:32:17;;;;;;;14.20;7.35;;;18.70;99.90;;;;;;4954189;29;20066;-73
2023/09/12 03:34:49;;;;;;;16.08;7.63;;;18.60;99.90;;;;;;4952919;29;20497;-73
2023/09/12 03:37:15;;;;;;;13.82;7.93;;;18.60;99.90;;;;;;4954289;29;20039;-73
2023/09/12 03:39:44;;;;;;;17.52;7.93;;;18.60;99.90;;;;;;4954150;29;20023;-73
2023/09/12 03:42:09;;;;;;;11.93;6.93;;;18.50;99.90;;;;;;4954108;29;20497;-73
2023/09/12 03:44:35;;;;;;;14.40;7.00;;;18.50;99.90;;;;;;4954124;29;20061;-72
2023/09/12 03:47:07;;;;;;;15.13;7.63;;;18.50;99.90;;;;;;4954152;29;20387;-73
2023/09/12 03:49:33;;;;;;;12.90;7.15;;;18.50;99.90;;;;;;4952657;29;20441;-74
2023/09/12 03:51:58;;;;;;;12.35;6.97;;;18.50;99.90;;;;;;4953985;29;20034;-74
2023/09/12 03:54:27;;;;;;;11.48;6.70;;;18.40;99.90;;;;;;4954079;29;20027;-72
2023/09/12 03:56:56;;;;;;;15.20;7.28;;;18.40;99.90;;;;;;4954151;29;20486;-73
2023/09/12 03:59:21;;;;;;;14.60;7.45;;;18.40;99.90;;;;;;4954372;29;20198;-73
2023/09/12 04:01:50;;;;;;;12.45;7.45;;;18.40;99.90;;;;;;4952557;29;20510;-74
2023/09/12 04:04:15;;;;;;;14.15;7.78;;;18.40;99.90;;;;;;4953924;29;20434;-73
2023/09/12 04:06:47;;;;;;;13.73;7.05;;;18.40;99.90;;;;;;4953124;28;20023;-73
2023/09/12 04:09:12;;;;;;;13.95;8.00;;;18.40;99.90;;;;;;4953920;29;20039;-73
2023/09/12 04:11:41;;;;;;;15.60;7.82;;;18.30;99.90;;;;;;4952525;29;20158;-72
2023/09/12 04:14:09;;;;;;;18.45;7.80;;;18.40;99.90;;;;;;4953673;29;20118;-73
2023/09/12 04:16:35;;;;;;;12.35;8.32;;;18.30;99.90;;;;;;4953768;29;20152;-73
2023/09/12 04:19:13;;;;;;;18.85;7.75;;;18.30;99.90;;;;;;4953568;29;20118;-73
2023/09/12 04:21:39;;;;;;;18.52;7.70;;;18.30;99.90;;;;;;4953839;29;20160;-73
2023/09/12 04:24:11;;;;;;;16.15;7.88;;;18.30;99.90;;;;;;4953535;28;20159;-73
2023/09/12 04:26:36;;;;;;;17.38;8.40;;;18.30;99.90;;;;;;4953670;28;20028;-73
2023/09/12 04:29:05;;;;;;;13.95;7.68;;;18.20;99.90;;;;;;4953835;28;20039;-74
2023/09/12 04:31:30;;;;;;;19.48;7.70;;;18.20;99.90;;;;;;4953493;28;20102;-73
2023/09/12 04:34:11;;;;;;;13.30;7.50;;;18.20;99.90;;;;;;4952033;29;20118;-74
2023/09/12 04:36:36;;;;;;;14.77;8.35;;;18.10;99.90;;;;;;4953584;28;20035;-75
2023/09/12 04:39:02;;;;;;;13.23;8.02;;;18.10;99.90;;;;;;4953528;28;20031;-74
2023/09/12 04:41:28;;;;;;;17.90;7.93;;;18.10;99.90;;;;;;4953297;28;20102;-74
2023/09/12 04:44:02;;;;;;;19.00;8.55;;;18.10;99.90;;;;;;4953535;28;20030;-74
2023/09/12 04:46:31;;;;;;;18.00;7.95;;;18.10;99.90;;;;;;4953388;28;20031;-75
2023/09/12 04:48:56;;;;;;;17.88;8.60;;;18.00;99.90;;;;;;4952253;29;20027;-75
2023/09/12 04:51:26;;;;;;;18.45;7.70;;;18.00;99.90;;;;;;4953431;28;20039;-74
2023/09/12 04:53:52;;;;;;;12.95;7.63;;;18.00;99.90;;;;;;4953538;28;20023;-74
2023/09/12 04:56:18;;;;;;;16.25;8.07;;;18.10;99.90;;;;;;4953413;28;20163;-73
2023/09/12 04:58:44;;;;;;;15.88;8.52;;;18.00;99.90;;;;;;4953291;28;20050;-72
2023/09/12 05:01:09;;;;;;;13.30;8.23;;;18.00;99.90;;;;;;4952302;29;20031;-73
2023/09/12 05:03:35;;;;;;;13.40;8.93;;;18.00;99.90;;;;;;4953069;28;20023;-73
2023/09/12 05:06:01;;;;;;;13.38;7.97;;;18.00;99.90;;;;;;4953257;28;20035;-74
2023/09/12 05:08:27;;;;;;;18.85;8.48;;;18.00;99.90;;;;;;4953374;28;20029;-73
2023/09/12 05:10:52;;;;;;;15.65;8.68;;;18.00;99.90;;;;;;4953241;28;20028;-73
2023/09/12 05:13:18;;;;;;;16.73;8.57;;;18.00;99.90;;;;;;4953202;28;20059;-74
2023/09/12 05:15:46;;;;;;;21.83;9.02;;;18.00;99.90;;;;;;4953421;28;20023;-74
2023/09/12 05:18:18;;;;;;;11.93;7.63;;;18.00;99.90;;;;;;4955735;28;20358;-73
2023/09/12 05:20:46;;;;;;;16.98;8.90;;;18.00;99.90;;;;;;4956999;28;20373;-73
2023/09/12 05:23:15;;;;;;;15.93;8.68;;;18.00;99.90;;;;;;4956675;28;20035;-74
2023/09/12 05:25:41;;;;;;;16.40;8.57;;;18.10;99.90;;;;;;4957248;28;20383;-73
2023/09/12 05:28:07;;;;;;;16.48;8.60;;;18.10;99.90;;;;;;4957415;28;20030;-74
2023/09/12 05:30:35;;;;;;;14.48;8.80;;;18.10;99.90;;;;;;4957617;28;20027;-71
2023/09/12 05:33:01;;;;;;;20.23;9.00;;;18.10;99.90;;;;;;4957048;28;20090;-74
2023/09/12 05:35:27;;;;;;;15.55;7.95;;;18.10;99.90;;;;;;4956755;28;20410;-73
2023/09/12 05:37:58;;;;;;;16.67;8.68;;;18.20;99.90;;;;;;4956853;28;20034;-73
2023/09/12 05:40:27;;;;;;;14.38;8.20;;;18.20;99.90;;;;;;4955526;29;20122;-72
2023/09/12 05:42:59;;;;;;;12.82;7.88;;;18.30;99.90;;;;;;4948531;28;20027;-74
2023/09/12 05:45:24;;;;;;;15.80;7.15;;;18.30;99.90;;;;;;4961756;28;20031;-74
2023/09/12 05:47:50;;;;;;;12.25;8.35;;;18.40;99.90;;;;;;4944459;28;20074;-74
2023/09/12 05:50:16;;;;;;;18.67;8.05;;;18.50;99.90;;;;;;4942631;28;20600;-73
2023/09/12 05:52:45;;;;;;;12.05;7.82;;;18.60;99.90;;;;;;4945415;28;20031;-74
2023/09/12 05:55:10;;;;;;;12.07;7.45;;;18.60;99.90;;;;;;4950840;28;20078;-75
2023/09/12 05:57:42;;;;;;;24.35;9.15;;;18.70;99.90;;;;;;4947780;28;20497;-74
2023/09/12 06:00:11;;;;;;;14.95;8.45;;;18.80;99.90;;;;;;4946880;28;20398;-75
2023/09/12 06:02:40;;;;;;;17.90;7.43;;;18.90;99.90;;;;;;4951203;28;20545;-73
2023/09/12 06:05:11;;;;;;;11.88;7.80;;;19.00;99.90;;;;;;4950676;28;20032;-75
2023/09/12 06:07:39;;;;;;;14.27;7.55;;;19.10;99.90;;;;;;4951938;28;20506;-75
2023/09/12 06:10:10;;;;;;;12.45;7.43;;;19.20;99.90;;;;;;4951358;28;20046;-75
2023/09/12 06:12:42;;;;;;;13.13;7.82;;;19.40;99.90;;;;;;4951620;28;20043;-75
2023/09/12 06:15:07;;;;;;;15.80;7.90;;;19.50;99.90;;;;;;4952797;28;20371;-76
2023/09/12 06:17:33;;;;;;;16.45;7.25;;;19.60;99.90;;;;;;4951708;28;20042;-76
2023/09/12 06:19:59;;;;;;;11.75;6.47;;;19.60;99.90;;;;;;4948674;28;20494;-77
2023/09/12 06:22:24;;;;;;;11.60;6.57;;;19.60;99.90;;;;;;4952049;28;20058;-77
2023/09/12 06:24:50;;;;;;;14.38;7.80;;;19.60;99.90;;;;;;4948882;28;20149;-77
2023/09/12 06:27:18;;;;;;;13.35;7.70;;;19.70;99.90;;;;;;4953364;28;20037;-78
2023/09/12 06:29:47;;;;;;;12.48;7.28;;;19.70;99.90;;;;;;4973107;28;20126;-77
2023/09/12 06:32:12;;;;;;;12.05;7.70;;;19.80;99.90;;;;;;4956001;28;20038;-77
2023/09/12 06:34:38;;;;;;;12.98;7.03;;;19.90;99.90;;;;;;4951092;28;20498;-76
2023/09/12 06:37:13;;;;;;;13.27;8.38;;;19.90;99.90;;;;;;4964984;28;20035;-72
2023/09/12 06:39:39;;;;;;;11.23;7.28;;;20.00;99.90;;;;;;4957554;29;20031;-74
2023/09/12 06:42:11;;;;;;;11.30;7.45;;;20.00;99.90;;;;;;4972648;28;20023;-73
2023/09/12 06:44:43;;;;;;;16.55;7.63;;;20.10;99.90;;;;;;4957349;29;20049;-72
2023/09/12 06:47:10;;;;;;;14.30;7.60;;;20.10;99.90;;;;;;4957113;29;20023;-72
2023/09/12 06:49:38;;;;;;;13.63;7.80;;;20.10;99.90;;;;;;4957627;29;20070;-73
2023/09/12 06:52:09;;;;;;;14.00;7.47;;;20.10;99.90;;;;;;4957209;29;20160;-72
2023/09/12 06:54:43;;;;;;;16.75;8.02;;;20.10;99.90;;;;;;4956934;29;20027;-72
2023/09/12 06:57:15;;;;;;;14.00;7.65;;;20.10;99.90;;;;;;4957359;28;20038;-72
2023/09/12 06:59:49;;;;;;;16.40;7.22;;;20.10;99.90;;;;;;4955898;29;20095;-72
2023/09/12 07:02:14;;;;;;;;;;;20.10;99.90;;;;;;4957293;28;20027;-73
2023/09/12 07:04:40;;;;;;;13.25;7.60;;;20.10;99.90;;;;;;4955062;29;20001;-73
2023/09/12 07:07:05;;;;;;;13.25;8.05;;;20.10;99.90;;;;;;4955510;29;20455;-73
2023/09/12 07:09:31;;;;;;;14.13;8.10;;;20.10;99.90;;;;;;4956441;28;20097;-72
2023/09/12 07:11:57;;;;;;;13.35;7.50;;;20.10;99.90;;;;;;4957247;28;20042;-73
2023/09/12 07:14:25;;;;;;;11.90;7.80;;;20.20;99.90;;;;;;4955777;29;20508;-73
2023/09/12 07:16:57;;;;;;;13.75;7.90;;;20.20;99.90;;;;;;4956574;28;20490;-73
2023/09/12 07:19:24;;;;;;;14.10;7.35;;;20.10;99.90;;;;;;4956338;28;20371;-72
2023/09/12 07:21:52;;;;;;;14.88;7.93;;;20.10;99.90;;;;;;4971190;28;20074;-73
2023/09/12 07:24:18;;;;;;;12.80;7.25;;;20.10;99.90;;;;;;4956863;28;20023;-73
2023/09/12 07:26:44;;;;;;;13.70;8.45;;;20.10;99.90;;;;;;4956935;28;20078;-73
2023/09/12 07:29:09;;;;;;;14.43;7.65;;;20.20;99.90;;;;;;4956778;28;20435;-71
2023/09/12 07:31:44;;;;;;;15.90;7.82;;;20.20;99.90;;;;;;4954878;29;20042;-73
2023/09/12 07:34:11;;;;;;;11.98;8.07;;;20.20;99.90;;;;;;4968062;23;20119;-86
2023/09/12 07:36:37;;;;;;;10.23;7.90;;;20.30;99.90;;;;;;4967275;28;20044;-87
2023/09/12 07:39:04;;;;;;;14.38;7.72;;;20.30;99.90;;;;;;4973596;28;20041;-88
2023/09/12 07:41:30;;;;;;;14.05;9.35;;;20.40;99.90;;;;;;4956032;28;20046;-87
2023/09/12 07:43:58;;;;;;;13.95;7.78;;;20.50;99.90;;;;;;4963626;28;20588;-87
2023/09/12 07:46:23;;;;;;;18.83;8.65;;;20.60;99.90;;;;;;4958681;28;20094;-87
2023/09/12 07:48:49;;;;;;;18.42;8.27;;;20.70;99.90;;;;;;4964478;28;20027;-87
2023/09/12 07:51:17;;;;;;;18.98;8.80;;;20.90;99.90;;;;;;4978334;28;20136;-85
2023/09/12 07:53:43;;;;;;;14.77;8.82;;;21.00;99.90;;;;;;4973700;28;20035;-88
2023/09/12 07:56:12;;;;;;;10.18;8.23;;;21.10;99.90;;;;;;4972560;28;20050;-88
2023/09/12 07:58:38;;;;;;;10.93;8.10;;;21.20;99.90;;;;;;4955019;28;20031;-88
2023/09/12 08:01:13;;;;;;;17.75;8.82;;;21.10;99.90;;;;;;4968997;28;20554;-88
2023/09/12 08:03:42;;;;;;;14.00;8.52;;;21.30;99.90;;;;;;4976363;28;20391;-87
2023/09/12 08:06:07;;;;;;;14.13;7.53;;;21.40;99.90;;;;;;4973282;28;20042;-86
2023/09/12 08:08:33;;;;;;;12.00;7.88;;;21.40;99.90;;;;;;4971174;28;20023;-86
2023/09/12 08:10:58;;;;;;;16.92;8.05;;;21.50;99.90;;;;;;4970162;28;20019;-86
2023/09/12 08:13:27;;;;;;;18.73;8.05;;;21.60;99.90;;;;;;4970991;28;20030;-85
2023/09/12 08:15:53;;;;;;;10.63;7.93;;;21.70;99.90;;;;;;4971437;28;20023;-86
2023/09/12 08:18:19;;;;;;;15.98;8.05;;;21.80;99.90;;;;;;4959261;28;20086;-85
2023/09/12 08:20:45;;;;;;;14.13;8.13;;;21.90;99.90;;;;;;4972483;28;20023;-87
2023/09/12 08:23:10;;;;;;;17.10;8.18;;;22.00;99.90;;;;;;4969591;28;20110;-85
2023/09/12 08:25:36;;;;;;;16.13;8.07;;;22.10;99.90;;;;;;4967063;28;20023;-84
2023/09/12 08:28:02;;;;;;;13.73;8.30;;;22.20;99.90;;;;;;4955111;28;20042;-84
2023/09/12 08:30:30;;;;;;;12.40;7.72;;;22.20;99.90;;;;;;4966383;23;20451;-76
2023/09/12 08:32:56;;;;;;;14.75;8.77;;;22.30;99.90;;;;;;4951272;28;20379;-77
2023/09/12 08:35:22;;;;;;;15.43;8.20;;;22.40;99.90;;;;;;4945772;28;20046;-74
2023/09/12 08:37:53;;;;;;;15.50;7.85;;;22.50;99.90;;;;;;4947818;28;20323;-73
2023/09/12 08:40:25;;;;;;;11.45;7.60;;;22.50;99.90;;;;;;4950205;28;20027;-74
2023/09/12 08:42:52;;;;;;;13.43;7.22;;;22.60;99.90;;;;;;4936150;28;20029;-74
2023/09/12 08:45:19;;;;;;;16.85;8.82;;;22.70;99.90;;;;;;4965443;23;20050;-88
2023/09/12 08:47:49;;;;;;;16.85;8.05;;;22.70;99.90;;;;;;4973787;28;20059;-88
2023/09/12 08:50:18;;;;;;;12.50;7.47;;;22.80;99.90;;;;;;4986149;28;20026;-88
2023/09/12 08:52:45;;;;;;;11.43;7.50;;;22.90;99.90;;;;;;4979064;28;20020;-89
2023/09/12 08:55:11;;;;;;;13.23;8.15;;;22.90;99.90;;;;;;4976800;28;20066;-89
2023/09/12 08:57:49;;;;;;;14.68;8.38;;;23.00;99.90;;;;;;4976276;28;20028;-89
2023/09/12 09:00:15;;;;;;;10.60;8.68;;;23.10;99.90;;;;;;4962348;28;20023;-88
2023/09/12 09:02:43;;;;;;;12.77;7.47;;;23.20;99.90;;;;;;4978105;28;20061;-87
2023/09/12 09:05:10;;;;;;;12.90;7.57;;;23.20;99.90;;;;;;4978643;28;20468;-88
2023/09/12 09:07:40;;;;;;;14.57;7.95;;;23.30;99.90;;;;;;4982198;28;20027;-88
2023/09/12 09:10:09;;;;;;;16.63;8.10;;;23.40;99.90;;;;;;4995157;28;20034;-88
2023/09/12 09:12:36;;;;;;;13.25;8.10;;;23.50;99.90;;;;;;4996780;28;20023;-88
2023/09/12 09:15:41;;;;;;;13.65;8.38;;;23.60;99.90;;;;;;4980359;28;20047;-87
2023/09/12 09:18:07;;;;;;;11.90;8.23;;;23.70;99.90;;;;;;4959539;28;20020;-88
2023/09/12 09:20:35;;;;;;;18.27;8.23;;;23.80;99.90;;;;;;4942581;28;20019;-88
2023/09/12 09:23:05;;;;;;;14.23;7.72;;;23.90;99.90;;;;;;4953884;29;20043;-88
2023/09/12 09:25:36;;;;;;;13.15;8.05;;;24.00;99.90;;;;;;4981302;28;20051;-88
2023/09/12 09:28:15;;;;;;;11.43;8.18;;;24.10;99.90;;;;;;4981831;28;20047;-89
2023/09/12 09:30:51;;;;;;;10.50;7.15;;;24.20;99.90;;;;;;5003136;28;20015;-89
2023/09/12 09:33:17;;;;;;;11.55;7.60;;;24.30;99.90;;;;;;4998463;28;20043;-88
2023/09/12 09:35:45;;;;;;;14.15;8.48;;;24.50;99.90;;;;;;4994892;28;20028;-88
2023/09/12 09:38:16;;;;;;;11.20;7.55;;;24.60;99.90;;;;;;4988150;28;20039;-88
2023/09/12 09:40:43;;;;;;;10.10;6.93;;;24.60;99.90;;;;;;4988751;28;20020;-88
2023/09/12 09:43:09;;;;;;;12.10;7.65;;;24.80;99.90;;;;;;4978309;28;20026;-90
2023/09/12 09:45:46;;;;;;;15.18;7.53;;;24.90;99.90;;;;;;4974021;28;20036;-89
2023/09/12 09:48:28;;;;;;;12.07;8.00;;;24.90;99.90;;;;;;4968184;29;20107;-89
2023/09/12 09:51:02;;;;;;;13.27;8.07;;;25.00;99.90;;;;;;4986208;28;20063;-88
2023/09/12 09:53:32;;;;;;;11.50;7.22;;;25.10;99.90;;;;;;4993680;28;20159;-89
2023/09/12 09:56:13;;;;;;;10.27;7.80;;;25.20;99.80;;;;;;4986824;28;20070;-87
2023/09/12 09:58:50;;;;;;;8.93;6.85;;;25.30;99.50;;;;;;4976187;28;20042;-88
2023/09/12 10:01:30;;;;;;;13.48;7.00;;;25.40;98.90;;;;;;4986049;28;20057;-91
2023/09/12 10:04:01;;;;;;;11.35;7.53;;;25.40;98.60;;;;;;4996509;28;20071;-88
2023/09/12 10:06:28;;;;;;;11.65;7.10;;;25.50;98.10;;;;;;4993119;28;20038;-88
2023/09/12 10:09:00;;;;;;;13.45;7.40;;;25.60;97.60;;;;;;4995998;28;20035;-88
2023/09/12 10:11:29;;;;;;;15.25;7.82;;;25.70;97.70;;;;;;4988516;28;20027;-88
2023/09/12 10:13:57;;;;;;;22.75;7.53;;;25.80;97.90;;;;;;4988306;28;20029;-88
2023/09/12 10:16:36;;;;;;;11.45;7.00;;;25.90;97.50;;;;;;4988405;28;20023;-87
2023/09/12 10:19:16;;;;;;;12.75;6.63;;;26.00;96.70;;;;;;4988274;28;20479;-88
2023/09/12 10:22:23;;;;;;;7.57;5.63;;;26.10;96.20;;;;;;4988195;28;20518;-88
2023/09/12 10:24:50;;;;;;;7.72;6.15;;;26.10;95.70;;;;;;4970076;28;20055;-87
2023/09/12 10:27:18;;;;;;;8.15;5.90;;;26.20;93.40;;;;;;4972473;28;20039;-88
2023/09/12 10:29:47;;;;;;;8.40;5.90;;;26.40;93.10;;;;;;4976670;28;20029;-89
2023/09/12 10:32:15;;;;;;;13.45;6.78;;;26.40;93.00;;;;;;4956224;28;20031;-89
2023/09/12 10:34:45;;;;;;;10.73;6.30;;;26.50;93.20;;;;;;4972325;28;20034;-89
2023/09/12 10:37:14;;;;;;;10.65;6.00;;;26.50;93.50;;;;;;4975663;28;20119;-88
2023/09/12 10:39:43;;;;;;;9.18;6.40;;;26.50;93.50;;;;;;4988566;28;20106;-89
2023/09/12 10:42:12;;;;;;;8.93;6.25;;;26.60;93.00;;;;;;4972625;28;20024;-88
2023/09/12 10:44:38;;;;;;;9.50;7.05;;;26.60;92.60;;;;;;4972754;28;20019;-88
2023/09/12 10:47:04;;;;;;;10.07;7.35;;;26.70;92.70;;;;;;4974058;28;20042;-88
2023/09/12 10:49:31;;;;;;;9.45;6.43;;;26.70;92.80;;;;;;4976256;28;20507;-88
2023/09/12 10:51:58;;;;;;;9.52;6.30;;;26.80;93.10;;;;;;4957282;28;20388;-88
2023/09/12 10:54:39;;;;;;;8.90;6.40;;;26.90;92.80;;;;;;4975414;28;20030;-89
2023/09/12 10:57:13;;;;;;;7.60;6.68;;;26.80;92.90;;;;;;4955618;28;20031;-87
2023/09/12 11:00:10;;;;;;;;;;;26.90;92.60;;;;;;4958412;28;20110;-88
2023/09/12 11:02:40;;;;;;;8.80;6.13;;;27.00;92.60;;;;;;4969121;28;19914;-89
2023/09/12 11:05:27;;;;;;;9.20;6.43;;;27.10;92.00;;;;;;4957110;28;20483;-88
2023/09/12 11:07:59;;;;;;;7.95;6.57;;;27.20;91.50;;;;;;4955705;28;20027;-89
2023/09/12 11:10:26;;;;;;;10.93;6.97;;;27.30;91.60;;;;;;4971824;28;20078;-88
2023/09/12 11:12:55;;;;;;;12.57;6.70;;;27.30;91.50;;;;;;4972433;28;20039;-88
2023/09/12 11:15:23;;;;;;;7.88;6.28;;;27.30;91.30;;;;;;4957367;28;20567;-88
2023/09/12 11:17:59;;;;;;;9.15;6.95;;;27.20;91.20;;;;;;4972206;28;20031;-89
2023/09/12 11:20:25;;;;;;;9.70;6.65;;;27.30;91.20;;;;;;4969549;28;20117;-89
2023/09/12 11:22:52;;;;;;;12.88;6.90;;;27.40;90.80;;;;;;4971210;28;20106;-88
2023/09/12 11:25:33;;;;;;;9.20;6.53;;;27.50;90.70;;;;;;4972153;28;20086;-88
2023/09/12 11:27:59;;;;;;;9.68;6.47;;;27.60;90.20;;;;;;4971896;28;20029;-88
2023/09/12 11:30:25;;;;;;;10.65;6.68;;;27.60;89.60;;;;;;4966518;28;20102;-88
2023/09/12 11:32:53;;;;;;;12.38;6.82;;;27.70;89.80;;;;;;4972272;28;20098;-88
2023/09/12 11:35:24;;;;;;;10.30;6.65;;;27.70;89.70;;;;;;4970164;28;20407;-88
2023/09/12 11:37:51;;;;;;;9.65;6.55;;;27.80;89.30;;;;;;4955383;28;20027;-88
2023/09/12 11:40:17;;;;;;;13.07;6.65;;;27.90;88.30;;;;;;4970167;28;20023;-88
2023/09/12 11:42:46;;;;;;;10.85;5.80;;;27.90;88.40;;;;;;4969003;28;20031;-87
2023/09/12 11:45:12;;;;;;;8.10;6.55;;;27.90;88.40;;;;;;4971689;28;20079;-88
2023/09/12 11:47:41;;;;;;;8.13;6.40;;;27.90;88.10;;;;;;4970734;28;20102;-88
2023/09/12 11:50:08;;;;;;;11.10;7.22;;;27.90;88.00;;;;;;4970158;28;20027;-88
2023/09/12 11:52:37;;;;;;;9.68;6.60;;;27.90;88.10;;;;;;4971406;28;20087;-88
2023/09/12 11:55:03;;;;;;;8.45;6.00;;;27.90;86.90;;;;;;4970351;28;20019;-88
2023/09/12 11:57:29;;;;;;;12.45;6.53;;;28.00;86.90;;;;;;4955579;28;20091;-88
2023/09/12 11:59:56;;;;;;;9.70;6.68;;;28.00;86.20;;;;;;4954920;28;20050;-88
2023/09/12 12:02:23;;;;;;;8.35;6.70;;;28.10;85.90;;;;;;4970318;28;20031;-88
2023/09/12 12:04:50;;;;;;;11.00;6.32;;;28.10;85.60;;;;;;4955310;28;20023;-88
2023/09/12 12:07:16;;;;;;;10.20;6.72;;;28.20;85.70;;;;;;4974984;28;20033;-88
2023/09/12 12:09:42;;;;;;;9.13;6.90;;;28.30;85.70;;;;;;4954456;28;20023;-89
2023/09/12 12:12:10;;;;;;;11.57;7.20;;;28.30;85.60;;;;;;4969278;28;20061;-89
2023/09/12 12:14:36;;;;;;;7.50;6.75;;;28.20;86.40;;;;;;4972754;28;20027;-88
2023/09/12 12:17:09;;;;;;;12.13;7.22;;;28.20;86.80;;;;;;4974652;28;20095;-89
2023/09/12 12:19:38;;;;;;;10.30;7.07;;;28.10;87.30;;;;;;4969854;28;20110;-89
2023/09/12 12:22:09;;;;;;;10.60;6.82;;;28.20;87.00;;;;;;4972086;28;20451;-89
2023/09/12 12:24:47;;;;;;;9.57;7.30;;;28.10;87.70;;;;;;4955082;28;20087;-89
2023/09/12 12:27:16;;;;;;;7.38;6.68;;;28.10;88.00;;;;;;4971001;28;20023;-89
2023/09/12 12:29:43;;;;;;;11.32;7.00;;;28.10;87.50;;;;;;4970433;28;20027;-89
2023/09/12 12:32:24;;;;;;;8.65;6.43;;;28.10;87.80;;;;;;4971512;28;20158;-89
2023/09/12 12:34:50;;;;;;;7.03;6.32;;;28.30;86.60;;;;;;4955225;28;20117;-89
2023/09/12 12:37:30;;;;;;;10.83;6.77;;;28.30;86.20;;;;;;4955884;28;20051;-89
2023/09/12 12:39:59;;;;;;;8.80;6.25;;;28.50;86.00;;;;;;4973119;28;20029;-89
2023/09/12 12:42:25;;;;;;;13.15;7.30;;;28.40;86.10;;;;;;4972778;28;20031;-88
2023/09/12 12:44:54;;;;;;;8.00;6.95;;;28.50;86.70;;;;;;4972172;28;20023;-88
2023/09/12 12:47:22;;;;;;;8.15;6.82;;;28.50;87.00;;;;;;4972226;28;20027;-89
2023/09/12 12:49:53;;;;;;;;;;;28.60;86.30;;;;;;4961038;28;20051;-88